sensor_id;sensor_type;location;lat;lon;timestamp;temperature;humidity
16402;DHT22;8310;44.626;11.176;2022-09-09T00:01:23;24.70;56.30
16402;DHT22;8310;44.626;11.176;2022-09-09T00:03:59;24.70;56.40
16402;DHT22;8310;44.626;11.176;2022-09-09T00:06:30;24.70;56.40
16402;DHT22;8310;44.626;11.176;2022-09-09T00:09:02;24.60;57.00
16402;DHT22;8310;44.626;11.176;2022-09-09T00:11:43;24.60;56.40
16402;DHT22;8310;44.626;11.176;2022-09-09T00:14:20;24.60;56.40
16402;DHT22;8310;44.626;11.176;2022-09-09T00:16:53;24.50;56.30
16402;DHT22;8310;44.626;11.176;2022-09-09T00:19:26;24.50;56.40
16402;DHT22;8310;44.626;11.176;2022-09-09T00:22:08;24.50;56.50
16402;DHT22;8310;44.626;11.176;2022-09-09T00:24:44;24.40;56.30
16402;DHT22;8310;44.626;11.176;2022-09-09T00:27:19;24.40;56.40
16402;DHT22;8310;44.626;11.176;2022-09-09T00:29:54;24.30;56.30
16402;DHT22;8310;44.626;11.176;2022-09-09T00:32:28;24.20;56.20
16402;DHT22;8310;44.626;11.176;2022-09-09T00:35:02;24.10;56.00
16402;DHT22;8310;44.626;11.176;2022-09-09T00:37:32;24.00;56.00
16402;DHT22;8310;44.626;11.176;2022-09-09T00:40:03;23.90;56.10
16402;DHT22;8310;44.626;11.176;2022-09-09T00:42:41;23.90;56.30
16402;DHT22;8310;44.626;11.176;2022-09-09T00:45:22;23.90;56.40
16402;DHT22;8310;44.626;11.176;2022-09-09T00:47:56;23.80;56.50
16402;DHT22;8310;44.626;11.176;2022-09-09T00:50:37;23.80;56.50
16402;DHT22;8310;44.626;11.176;2022-09-09T00:53:15;23.70;56.50
16402;DHT22;8310;44.626;11.176;2022-09-09T00:55:51;23.70;56.50
16402;DHT22;8310;44.626;11.176;2022-09-09T00:58:20;23.70;56.50
16402;DHT22;8310;44.626;11.176;2022-09-09T01:00:52;23.70;56.50
16402;DHT22;8310;44.626;11.176;2022-09-09T01:03:30;23.60;56.50
16402;DHT22;8310;44.626;11.176;2022-09-09T01:06:11;23.50;56.40
16402;DHT22;8310;44.626;11.176;2022-09-09T01:09:02;23.50;56.50
16402;DHT22;8310;44.626;11.176;2022-09-09T01:11:36;23.40;56.50
16402;DHT22;8310;44.626;11.176;2022-09-09T01:14:16;23.40;56.60
16402;DHT22;8310;44.626;11.176;2022-09-09T01:16:48;23.30;56.60
16402;DHT22;8310;44.626;11.176;2022-09-09T01:19:23;23.30;56.70
16402;DHT22;8310;44.626;11.176;2022-09-09T01:22:01;23.30;56.70
16402;DHT22;8310;44.626;11.176;2022-09-09T01:24:37;23.30;56.70
16402;DHT22;8310;44.626;11.176;2022-09-09T01:27:08;23.20;56.70
16402;DHT22;8310;44.626;11.176;2022-09-09T01:29:36;23.20;56.80
16402;DHT22;8310;44.626;11.176;2022-09-09T01:32:38;23.20;56.80
16402;DHT22;8310;44.626;11.176;2022-09-09T01:35:08;23.20;56.80
16402;DHT22;8310;44.626;11.176;2022-09-09T01:37:39;23.20;56.90
16402;DHT22;8310;44.626;11.176;2022-09-09T01:40:08;23.20;56.90
16402;DHT22;8310;44.626;11.176;2022-09-09T01:42:37;23.20;57.00
16402;DHT22;8310;44.626;11.176;2022-09-09T01:45:09;23.20;57.00
16402;DHT22;8310;44.626;11.176;2022-09-09T01:47:38;23.20;56.90
16402;DHT22;8310;44.626;11.176;2022-09-09T01:50:07;23.10;56.90
16402;DHT22;8310;44.626;11.176;2022-09-09T01:52:36;23.10;56.90
16402;DHT22;8310;44.626;11.176;2022-09-09T01:55:04;23.10;56.90
16402;DHT22;8310;44.626;11.176;2022-09-09T01:57:36;23.00;57.40
16402;DHT22;8310;44.626;11.176;2022-09-09T02:00:10;23.00;56.70
16402;DHT22;8310;44.626;11.176;2022-09-09T02:02:46;22.90;56.70
16402;DHT22;8310;44.626;11.176;2022-09-09T02:05:28;22.90;56.90
16402;DHT22;8310;44.626;11.176;2022-09-09T02:08:03;22.80;56.70
16402;DHT22;8310;44.626;11.176;2022-09-09T02:10:37;22.80;56.70
16402;DHT22;8310;44.626;11.176;2022-09-09T02:13:10;22.70;56.50
16402;DHT22;8310;44.626;11.176;2022-09-09T02:15:43;22.60;56.40
16402;DHT22;8310;44.626;11.176;2022-09-09T02:18:15;22.50;56.30
16402;DHT22;8310;44.626;11.176;2022-09-09T02:20:46;22.30;56.30
16402;DHT22;8310;44.626;11.176;2022-09-09T02:23:15;22.20;56.40
16402;DHT22;8310;44.626;11.176;2022-09-09T02:25:43;22.20;56.60
16402;DHT22;8310;44.626;11.176;2022-09-09T02:28:13;22.10;56.70
16402;DHT22;8310;44.626;11.176;2022-09-09T02:30:44;22.10;56.90
16402;DHT22;8310;44.626;11.176;2022-09-09T02:33:14;22.10;56.90
16402;DHT22;8310;44.626;11.176;2022-09-09T02:35:42;22.10;57.00
16402;DHT22;8310;44.626;11.176;2022-09-09T02:38:12;22.10;56.90
16402;DHT22;8310;44.626;11.176;2022-09-09T02:40:40;22.10;57.00
16402;DHT22;8310;44.626;11.176;2022-09-09T02:43:08;22.10;57.10
16402;DHT22;8310;44.626;11.176;2022-09-09T02:45:41;22.00;57.00
16402;DHT22;8310;44.626;11.176;2022-09-09T02:48:14;22.00;57.10
16402;DHT22;8310;44.626;11.176;2022-09-09T02:50:54;22.00;57.20
16402;DHT22;8310;44.626;11.176;2022-09-09T02:53:28;22.00;57.20
16402;DHT22;8310;44.626;11.176;2022-09-09T02:56:04;22.10;57.30
16402;DHT22;8310;44.626;11.176;2022-09-09T02:58:32;22.10;57.30
16402;DHT22;8310;44.626;11.176;2022-09-09T03:01:00;22.10;57.30
16402;DHT22;8310;44.626;11.176;2022-09-09T03:03:30;22.10;57.40
16402;DHT22;8310;44.626;11.176;2022-09-09T03:05:57;22.10;57.30
16402;DHT22;8310;44.626;11.176;2022-09-09T03:08:29;22.10;57.30
16402;DHT22;8310;44.626;11.176;2022-09-09T03:10:58;22.00;57.20
16402;DHT22;8310;44.626;11.176;2022-09-09T03:13:27;22.00;57.20
16402;DHT22;8310;44.626;11.176;2022-09-09T03:15:54;21.90;57.00
16402;DHT22;8310;44.626;11.176;2022-09-09T03:18:21;21.80;57.10
16402;DHT22;8310;44.626;11.176;2022-09-09T03:20:51;21.70;57.20
16402;DHT22;8310;44.626;11.176;2022-09-09T03:23:19;21.70;57.20
16402;DHT22;8310;44.626;11.176;2022-09-09T03:25:47;21.70;57.40
16402;DHT22;8310;44.626;11.176;2022-09-09T03:28:15;21.70;57.40
16402;DHT22;8310;44.626;11.176;2022-09-09T03:30:43;21.70;57.40
16402;DHT22;8310;44.626;11.176;2022-09-09T03:33:10;21.70;57.40
16402;DHT22;8310;44.626;11.176;2022-09-09T03:35:45;21.70;57.50
16402;DHT22;8310;44.626;11.176;2022-09-09T03:38:15;21.70;57.50
16402;DHT22;8310;44.626;11.176;2022-09-09T03:40:49;21.70;57.40
16402;DHT22;8310;44.626;11.176;2022-09-09T03:43:16;21.70;57.50
16402;DHT22;8310;44.626;11.176;2022-09-09T03:45:45;21.70;57.60
16402;DHT22;8310;44.626;11.176;2022-09-09T03:48:14;21.70;57.60
16402;DHT22;8310;44.626;11.176;2022-09-09T03:50:44;21.70;57.70
16402;DHT22;8310;44.626;11.176;2022-09-09T03:53:13;21.70;57.60
16402;DHT22;8310;44.626;11.176;2022-09-09T03:55:45;21.70;57.60
16402;DHT22;8310;44.626;11.176;2022-09-09T03:58:13;21.70;57.60
16402;DHT22;8310;44.626;11.176;2022-09-09T04:00:41;21.70;57.60
16402;DHT22;8310;44.626;11.176;2022-09-09T04:03:10;21.70;57.60
16402;DHT22;8310;44.626;11.176;2022-09-09T04:05:40;21.60;57.40
16402;DHT22;8310;44.626;11.176;2022-09-09T04:08:08;21.50;57.30
16402;DHT22;8310;44.626;11.176;2022-09-09T04:10:35;21.40;57.30
16402;DHT22;8310;44.626;11.176;2022-09-09T04:13:05;21.40;57.40
16402;DHT22;8310;44.626;11.176;2022-09-09T04:15:33;21.30;57.40
16402;DHT22;8310;44.626;11.176;2022-09-09T04:18:01;21.30;57.60
16402;DHT22;8310;44.626;11.176;2022-09-09T04:20:28;21.30;57.60
16402;DHT22;8310;44.626;11.176;2022-09-09T04:23:01;21.30;57.70
16402;DHT22;8310;44.626;11.176;2022-09-09T04:25:28;21.30;57.60
16402;DHT22;8310;44.626;11.176;2022-09-09T04:27:57;21.30;57.60
16402;DHT22;8310;44.626;11.176;2022-09-09T04:30:25;21.30;57.60
16402;DHT22;8310;44.626;11.176;2022-09-09T04:32:53;21.20;57.50
16402;DHT22;8310;44.626;11.176;2022-09-09T04:35:21;21.20;57.50
16402;DHT22;8310;44.626;11.176;2022-09-09T04:37:48;21.10;57.60
16402;DHT22;8310;44.626;11.176;2022-09-09T04:40:16;21.10;57.60
16402;DHT22;8310;44.626;11.176;2022-09-09T04:42:43;21.10;57.60
16402;DHT22;8310;44.626;11.176;2022-09-09T04:45:13;21.00;57.60
16402;DHT22;8310;44.626;11.176;2022-09-09T04:47:42;21.00;57.60
16402;DHT22;8310;44.626;11.176;2022-09-09T04:50:10;21.00;57.70
16402;DHT22;8310;44.626;11.176;2022-09-09T04:52:37;21.00;57.60
16402;DHT22;8310;44.626;11.176;2022-09-09T04:55:06;20.90;57.70
16402;DHT22;8310;44.626;11.176;2022-09-09T04:57:34;20.90;57.60
16402;DHT22;8310;44.626;11.176;2022-09-09T05:00:04;20.80;57.70
16402;DHT22;8310;44.626;11.176;2022-09-09T05:02:31;20.80;57.80
16402;DHT22;8310;44.626;11.176;2022-09-09T05:05:01;20.80;57.90
16402;DHT22;8310;44.626;11.176;2022-09-09T05:07:28;20.90;58.00
16402;DHT22;8310;44.626;11.176;2022-09-09T05:09:56;20.90;58.00
16402;DHT22;8310;44.626;11.176;2022-09-09T05:12:24;20.90;58.20
16402;DHT22;8310;44.626;11.176;2022-09-09T05:14:52;20.90;58.20
16402;DHT22;8310;44.626;11.176;2022-09-09T05:17:19;21.00;58.20
16402;DHT22;8310;44.626;11.176;2022-09-09T05:19:47;21.00;58.20
16402;DHT22;8310;44.626;11.176;2022-09-09T05:22:19;20.90;58.00
16402;DHT22;8310;44.626;11.176;2022-09-09T05:24:48;20.90;58.00
16402;DHT22;8310;44.626;11.176;2022-09-09T05:27:16;20.90;58.50
16402;DHT22;8310;44.626;11.176;2022-09-09T05:29:45;20.90;58.40
16402;DHT22;8310;44.626;11.176;2022-09-09T05:32:13;21.00;58.50
16402;DHT22;8310;44.626;11.176;2022-09-09T05:34:41;21.00;58.40
16402;DHT22;8310;44.626;11.176;2022-09-09T05:37:08;21.00;58.40
16402;DHT22;8310;44.626;11.176;2022-09-09T05:39:37;21.00;58.40
16402;DHT22;8310;44.626;11.176;2022-09-09T05:42:05;21.00;58.30
16402;DHT22;8310;44.626;11.176;2022-09-09T05:44:32;21.00;58.30
16402;DHT22;8310;44.626;11.176;2022-09-09T05:47:01;21.00;58.40
16402;DHT22;8310;44.626;11.176;2022-09-09T05:49:28;21.00;58.60
16402;DHT22;8310;44.626;11.176;2022-09-09T05:51:55;21.10;58.70
16402;DHT22;8310;44.626;11.176;2022-09-09T05:54:23;21.10;58.70
16402;DHT22;8310;44.626;11.176;2022-09-09T05:56:52;21.20;58.80
16402;DHT22;8310;44.626;11.176;2022-09-09T05:59:20;21.30;58.90
16402;DHT22;8310;44.626;11.176;2022-09-09T06:01:48;21.30;59.00
16402;DHT22;8310;44.626;11.176;2022-09-09T06:04:17;21.40;59.00
16402;DHT22;8310;44.626;11.176;2022-09-09T06:06:46;21.50;59.10
16402;DHT22;8310;44.626;11.176;2022-09-09T06:09:14;21.50;59.20
16402;DHT22;8310;44.626;11.176;2022-09-09T06:11:42;21.60;60.00
16402;DHT22;8310;44.626;11.176;2022-09-09T06:14:11;21.90;61.00
16402;DHT22;8310;44.626;11.176;2022-09-09T06:16:39;22.10;60.60
16402;DHT22;8310;44.626;11.176;2022-09-09T06:19:09;22.20;60.10
16402;DHT22;8310;44.626;11.176;2022-09-09T06:21:37;22.20;59.80
16402;DHT22;8310;44.626;11.176;2022-09-09T06:24:06;22.20;59.70
16402;DHT22;8310;44.626;11.176;2022-09-09T06:26:35;22.20;59.70
16402;DHT22;8310;44.626;11.176;2022-09-09T06:29:04;22.30;59.70
16402;DHT22;8310;44.626;11.176;2022-09-09T06:31:35;22.20;59.60
16402;DHT22;8310;44.626;11.176;2022-09-09T06:34:07;22.30;59.70
16402;DHT22;8310;44.626;11.176;2022-09-09T06:36:36;22.30;59.60
16402;DHT22;8310;44.626;11.176;2022-09-09T06:39:04;22.40;59.70
16402;DHT22;8310;44.626;11.176;2022-09-09T06:41:32;22.40;59.70
16402;DHT22;8310;44.626;11.176;2022-09-09T06:43:59;22.40;59.70
16402;DHT22;8310;44.626;11.176;2022-09-09T06:46:29;22.50;59.70
16402;DHT22;8310;44.626;11.176;2022-09-09T06:49:00;22.50;59.70
16402;DHT22;8310;44.626;11.176;2022-09-09T06:51:29;22.60;59.70
16402;DHT22;8310;44.626;11.176;2022-09-09T06:53:58;22.60;59.80
16402;DHT22;8310;44.626;11.176;2022-09-09T06:56:28;22.70;60.00
16402;DHT22;8310;44.626;11.176;2022-09-09T06:58:57;22.80;60.10
16402;DHT22;8310;44.626;11.176;2022-09-09T07:01:27;22.90;60.20
16402;DHT22;8310;44.626;11.176;2022-09-09T07:03:57;23.00;60.30
16402;DHT22;8310;44.626;11.176;2022-09-09T07:06:26;23.10;60.30
16402;DHT22;8310;44.626;11.176;2022-09-09T07:08:56;23.30;60.40
16402;DHT22;8310;44.626;11.176;2022-09-09T07:11:27;23.40;60.40
16402;DHT22;8310;44.626;11.176;2022-09-09T07:13:57;23.40;60.40
16402;DHT22;8310;44.626;11.176;2022-09-09T07:16:25;23.50;60.50
16402;DHT22;8310;44.626;11.176;2022-09-09T07:18:53;23.60;60.60
16402;DHT22;8310;44.626;11.176;2022-09-09T07:21:25;23.70;60.70
16402;DHT22;8310;44.626;11.176;2022-09-09T07:23:53;23.90;60.90
16402;DHT22;8310;44.626;11.176;2022-09-09T07:26:23;24.00;61.00
16402;DHT22;8310;44.626;11.176;2022-09-09T07:28:50;24.10;61.00
16402;DHT22;8310;44.626;11.176;2022-09-09T07:31:19;24.20;61.00
16402;DHT22;8310;44.626;11.176;2022-09-09T07:33:48;24.40;61.10
16402;DHT22;8310;44.626;11.176;2022-09-09T07:36:18;24.50;61.10
16402;DHT22;8310;44.626;11.176;2022-09-09T07:38:51;24.60;61.20
16402;DHT22;8310;44.626;11.176;2022-09-09T07:41:21;24.70;61.30
16402;DHT22;8310;44.626;11.176;2022-09-09T07:43:50;24.80;61.20
16402;DHT22;8310;44.626;11.176;2022-09-09T07:46:20;25.00;61.30
16402;DHT22;8310;44.626;11.176;2022-09-09T07:48:49;25.00;61.30
16402;DHT22;8310;44.626;11.176;2022-09-09T07:51:19;25.20;61.50
16402;DHT22;8310;44.626;11.176;2022-09-09T07:53:52;25.30;61.50
16402;DHT22;8310;44.626;11.176;2022-09-09T07:56:21;25.50;61.80
16402;DHT22;8310;44.626;11.176;2022-09-09T07:58:49;25.60;61.70
16402;DHT22;8310;44.626;11.176;2022-09-09T08:01:19;25.70;61.70
16402;DHT22;8310;44.626;11.176;2022-09-09T08:03:53;25.80;61.70
16402;DHT22;8310;44.626;11.176;2022-09-09T08:06:21;26.00;61.80
16402;DHT22;8310;44.626;11.176;2022-09-09T08:08:52;26.10;61.80
16402;DHT22;8310;44.626;11.176;2022-09-09T08:11:21;26.20;61.80
16402;DHT22;8310;44.626;11.176;2022-09-09T08:13:51;26.20;61.80
16402;DHT22;8310;44.626;11.176;2022-09-09T08:16:21;26.30;61.90
16402;DHT22;8310;44.626;11.176;2022-09-09T08:18:49;26.50;62.10
16402;DHT22;8310;44.626;11.176;2022-09-09T08:21:18;26.50;62.10
16402;DHT22;8310;44.626;11.176;2022-09-09T08:23:47;26.70;62.10
16402;DHT22;8310;44.626;11.176;2022-09-09T08:26:17;26.80;62.20
16402;DHT22;8310;44.626;11.176;2022-09-09T08:28:48;27.00;62.40
16402;DHT22;8310;44.626;11.176;2022-09-09T08:31:18;27.10;62.40
16402;DHT22;8310;44.626;11.176;2022-09-09T08:33:46;27.20;62.40
16402;DHT22;8310;44.626;11.176;2022-09-09T08:36:15;27.30;62.40
16402;DHT22;8310;44.626;11.176;2022-09-09T08:38:46;27.50;62.40
16402;DHT22;8310;44.626;11.176;2022-09-09T08:41:30;27.60;62.50
16402;DHT22;8310;44.626;11.176;2022-09-09T08:44:03;27.70;62.70
16402;DHT22;8310;44.626;11.176;2022-09-09T08:46:39;27.80;62.40
16402;DHT22;8310;44.626;11.176;2022-09-09T08:49:36;27.90;62.40
16402;DHT22;8310;44.626;11.176;2022-09-09T08:52:08;28.10;62.50
16402;DHT22;8310;44.626;11.176;2022-09-09T08:54:39;28.30;62.50
16402;DHT22;8310;44.626;11.176;2022-09-09T08:57:13;28.30;62.50
16402;DHT22;8310;44.626;11.176;2022-09-09T08:59:41;28.40;62.40
16402;DHT22;8310;44.626;11.176;2022-09-09T09:02:15;28.50;62.50
16402;DHT22;8310;44.626;11.176;2022-09-09T09:04:56;28.60;62.40
16402;DHT22;8310;44.626;11.176;2022-09-09T09:07:34;28.70;62.40
16402;DHT22;8310;44.626;11.176;2022-09-09T09:10:11;28.80;62.30
16402;DHT22;8310;44.626;11.176;2022-09-09T09:12:44;28.80;62.30
16402;DHT22;8310;44.626;11.176;2022-09-09T09:15:17;28.90;62.30
16402;DHT22;8310;44.626;11.176;2022-09-09T09:17:45;28.90;62.40
16402;DHT22;8310;44.626;11.176;2022-09-09T09:20:14;29.00;62.40
16402;DHT22;8310;44.626;11.176;2022-09-09T09:22:47;29.10;62.40
16402;DHT22;8310;44.626;11.176;2022-09-09T09:25:18;29.20;62.50
16402;DHT22;8310;44.626;11.176;2022-09-09T09:27:54;29.20;62.50
16402;DHT22;8310;44.626;11.176;2022-09-09T09:30:26;29.40;62.70
16402;DHT22;8310;44.626;11.176;2022-09-09T09:32:58;29.50;62.70
16402;DHT22;8310;44.626;11.176;2022-09-09T09:35:27;29.60;62.70
16402;DHT22;8310;44.626;11.176;2022-09-09T09:37:54;29.70;62.70
16402;DHT22;8310;44.626;11.176;2022-09-09T09:40:23;29.80;62.60
16402;DHT22;8310;44.626;11.176;2022-09-09T09:43:01;29.90;62.50
16402;DHT22;8310;44.626;11.176;2022-09-09T09:45:40;30.00;62.50
16402;DHT22;8310;44.626;11.176;2022-09-09T09:48:11;30.10;62.50
16402;DHT22;8310;44.626;11.176;2022-09-09T09:50:47;30.20;62.50
16402;DHT22;8310;44.626;11.176;2022-09-09T09:53:22;30.20;62.40
16402;DHT22;8310;44.626;11.176;2022-09-09T09:55:54;30.20;62.30
16402;DHT22;8310;44.626;11.176;2022-09-09T09:58:25;30.30;62.40
16402;DHT22;8310;44.626;11.176;2022-09-09T10:00:54;30.30;62.40
16402;DHT22;8310;44.626;11.176;2022-09-09T10:03:24;30.40;62.50
16402;DHT22;8310;44.626;11.176;2022-09-09T10:05:52;30.50;62.40
16402;DHT22;8310;44.626;11.176;2022-09-09T10:08:20;30.50;62.30
16402;DHT22;8310;44.626;11.176;2022-09-09T10:11:06;30.50;62.20
16402;DHT22;8310;44.626;11.176;2022-09-09T10:13:45;30.60;63.00
16402;DHT22;8310;44.626;11.176;2022-09-09T10:16:24;30.60;62.10
16402;DHT22;8310;44.626;11.176;2022-09-09T10:18:59;30.70;62.20
16402;DHT22;8310;44.626;11.176;2022-09-09T10:25:09;30.80;62.00
16402;DHT22;8310;44.626;11.176;2022-09-09T10:27:49;30.90;62.00
16402;DHT22;8310;44.626;11.176;2022-09-09T10:30:25;30.90;61.90
16402;DHT22;8310;44.626;11.176;2022-09-09T10:32:57;31.00;61.80
16402;DHT22;8310;44.626;11.176;2022-09-09T10:35:30;31.00;61.60
16402;DHT22;8310;44.626;11.176;2022-09-09T10:38:12;31.00;61.80
16402;DHT22;8310;44.626;11.176;2022-09-09T10:40:44;31.10;61.90
16402;DHT22;8310;44.626;11.176;2022-09-09T10:43:20;31.10;61.80
16402;DHT22;8310;44.626;11.176;2022-09-09T10:45:56;31.10;61.60
16402;DHT22;8310;44.626;11.176;2022-09-09T10:48:46;31.20;61.70
16402;DHT22;8310;44.626;11.176;2022-09-09T10:51:26;31.20;61.60
16402;DHT22;8310;44.626;11.176;2022-09-09T10:54:11;31.20;61.60
16402;DHT22;8310;44.626;11.176;2022-09-09T10:56:40;31.30;61.70
16402;DHT22;8310;44.626;11.176;2022-09-09T10:59:13;31.40;61.70
16402;DHT22;8310;44.626;11.176;2022-09-09T11:01:47;31.50;61.70
16402;DHT22;8310;44.626;11.176;2022-09-09T11:04:19;31.50;61.60
16402;DHT22;8310;44.626;11.176;2022-09-09T11:06:52;31.60;61.50
16402;DHT22;8310;44.626;11.176;2022-09-09T11:09:23;31.70;61.50
16402;DHT22;8310;44.626;11.176;2022-09-09T11:11:54;31.70;61.40
16402;DHT22;8310;44.626;11.176;2022-09-09T11:14:28;31.70;61.30
16402;DHT22;8310;44.626;11.176;2022-09-09T11:17:02;31.70;61.10
16402;DHT22;8310;44.626;11.176;2022-09-09T11:19:34;31.80;61.20
16402;DHT22;8310;44.626;11.176;2022-09-09T11:22:06;31.80;61.30
16402;DHT22;8310;44.626;11.176;2022-09-09T11:24:37;31.90;61.30
16402;DHT22;8310;44.626;11.176;2022-09-09T11:27:10;32.00;61.10
16402;DHT22;8310;44.626;11.176;2022-09-09T11:33:07;32.10;61.10
16402;DHT22;8310;44.626;11.176;2022-09-09T11:35:48;32.20;60.90
16402;DHT22;8310;44.626;11.176;2022-09-09T11:38:24;32.20;60.90
16402;DHT22;8310;44.626;11.176;2022-09-09T11:40:57;32.30;61.00
16402;DHT22;8310;44.626;11.176;2022-09-09T11:43:29;32.40;61.00
16402;DHT22;8310;44.626;11.176;2022-09-09T11:45:59;32.50;61.00
16402;DHT22;8310;44.626;11.176;2022-09-09T11:48:44;32.50;60.70
16402;DHT22;8310;44.626;11.176;2022-09-09T11:51:24;32.50;60.50
16402;DHT22;8310;44.626;11.176;2022-09-09T11:53:54;32.60;60.60
16402;DHT22;8310;44.626;11.176;2022-09-09T11:56:26;32.60;60.50
16402;DHT22;8310;44.626;11.176;2022-09-09T11:58:57;32.60;60.50
16402;DHT22;8310;44.626;11.176;2022-09-09T12:01:34;32.70;60.40
16402;DHT22;8310;44.626;11.176;2022-09-09T12:04:28;32.70;60.50
16402;DHT22;8310;44.626;11.176;2022-09-09T12:06:59;32.70;60.30
16402;DHT22;8310;44.626;11.176;2022-09-09T12:09:37;32.80;60.40
16402;DHT22;8310;44.626;11.176;2022-09-09T12:12:24;32.80;60.20
16402;DHT22;8310;44.626;11.176;2022-09-09T12:14:58;32.90;60.20
16402;DHT22;8310;44.626;11.176;2022-09-09T12:17:31;32.90;60.00
16402;DHT22;8310;44.626;11.176;2022-09-09T12:20:12;32.90;60.00
16402;DHT22;8310;44.626;11.176;2022-09-09T12:22:48;32.90;60.00
16402;DHT22;8310;44.626;11.176;2022-09-09T12:25:26;33.00;59.90
16402;DHT22;8310;44.626;11.176;2022-09-09T12:28:05;32.90;60.50
16402;DHT22;8310;44.626;11.176;2022-09-09T12:30:42;32.90;59.50
16402;DHT22;8310;44.626;11.176;2022-09-09T12:33:15;32.90;59.50
16402;DHT22;8310;44.626;11.176;2022-09-09T12:35:49;32.90;59.50
16402;DHT22;8310;44.626;11.176;2022-09-09T12:38:25;32.90;59.40
16402;DHT22;8310;44.626;11.176;2022-09-09T12:40:57;32.80;59.30
16402;DHT22;8310;44.626;11.176;2022-09-09T12:43:26;32.70;59.00
16402;DHT22;8310;44.626;11.176;2022-09-09T12:45:57;32.70;59.10
16402;DHT22;8310;44.626;11.176;2022-09-09T12:48:30;32.70;59.30
16402;DHT22;8310;44.626;11.176;2022-09-09T12:51:01;32.70;59.30
16402;DHT22;8310;44.626;11.176;2022-09-09T12:53:32;32.80;59.20
16402;DHT22;8310;44.626;11.176;2022-09-09T12:56:03;32.80;59.00
16402;DHT22;8310;44.626;11.176;2022-09-09T12:58:31;32.80;59.10
16402;DHT22;8310;44.626;11.176;2022-09-09T13:01:02;32.80;59.00
16402;DHT22;8310;44.626;11.176;2022-09-09T13:03:31;32.70;58.80
16402;DHT22;8310;44.626;11.176;2022-09-09T13:06:13;32.70;58.80
16402;DHT22;8310;44.626;11.176;2022-09-09T13:08:41;32.70;58.80
16402;DHT22;8310;44.626;11.176;2022-09-09T13:11:12;32.70;58.80
16402;DHT22;8310;44.626;11.176;2022-09-09T13:13:42;32.80;59.00
16402;DHT22;8310;44.626;11.176;2022-09-09T13:16:20;32.80;59.00
16402;DHT22;8310;44.626;11.176;2022-09-09T13:18:49;32.90;58.80
16402;DHT22;8310;44.626;11.176;2022-09-09T13:21:19;32.90;58.80
16402;DHT22;8310;44.626;11.176;2022-09-09T13:23:50;32.90;58.80
16402;DHT22;8310;44.626;11.176;2022-09-09T13:26:23;33.00;59.00
16402;DHT22;8310;44.626;11.176;2022-09-09T13:28:52;33.10;59.00
16402;DHT22;8310;44.626;11.176;2022-09-09T13:31:22;33.10;58.80
16402;DHT22;8310;44.626;11.176;2022-09-09T13:33:50;33.10;58.70
16402;DHT22;8310;44.626;11.176;2022-09-09T13:36:28;33.20;58.70
16402;DHT22;8310;44.626;11.176;2022-09-09T13:38:57;33.20;58.70
16402;DHT22;8310;44.626;11.176;2022-09-09T13:41:30;33.20;58.50
16402;DHT22;8310;44.626;11.176;2022-09-09T13:43:59;33.20;58.50
16402;DHT22;8310;44.626;11.176;2022-09-09T13:46:32;33.20;58.60
16402;DHT22;8310;44.626;11.176;2022-09-09T13:49:02;33.20;58.50
16402;DHT22;8310;44.626;11.176;2022-09-09T13:51:34;33.20;58.30
16402;DHT22;8310;44.626;11.176;2022-09-09T13:54:03;33.20;58.40
16402;DHT22;8310;44.626;11.176;2022-09-09T13:56:31;33.30;58.60
16402;DHT22;8310;44.626;11.176;2022-09-09T13:58:59;33.30;58.40
16402;DHT22;8310;44.626;11.176;2022-09-09T14:01:27;33.30;58.20
16402;DHT22;8310;44.626;11.176;2022-09-09T14:03:55;33.30;58.10
16402;DHT22;8310;44.626;11.176;2022-09-09T14:06:23;33.30;58.10
16402;DHT22;8310;44.626;11.176;2022-09-09T14:08:52;33.30;58.10
16402;DHT22;8310;44.626;11.176;2022-09-09T14:11:20;33.30;58.10
16402;DHT22;8310;44.626;11.176;2022-09-09T14:13:48;33.30;58.10
16402;DHT22;8310;44.626;11.176;2022-09-09T14:16:16;33.30;58.00
16402;DHT22;8310;44.626;11.176;2022-09-09T14:18:44;33.30;57.80
16402;DHT22;8310;44.626;11.176;2022-09-09T14:21:12;33.20;57.60
16402;DHT22;8310;44.626;11.176;2022-09-09T14:23:39;33.10;57.40
16402;DHT22;8310;44.626;11.176;2022-09-09T14:26:09;33.10;57.80
16402;DHT22;8310;44.626;11.176;2022-09-09T14:28:36;33.10;57.90
16402;DHT22;8310;44.626;11.176;2022-09-09T14:31:06;33.20;57.90
16402;DHT22;8310;44.626;11.176;2022-09-09T14:33:33;33.20;57.70
16402;DHT22;8310;44.626;11.176;2022-09-09T14:36:03;33.20;57.70
16402;DHT22;8310;44.626;11.176;2022-09-09T14:38:33;33.20;57.60
16402;DHT22;8310;44.626;11.176;2022-09-09T14:41:04;33.20;57.60
16402;DHT22;8310;44.626;11.176;2022-09-09T14:43:34;33.20;57.50
16402;DHT22;8310;44.626;11.176;2022-09-09T14:46:05;33.20;57.40
16402;DHT22;8310;44.626;11.176;2022-09-09T14:48:33;33.20;57.40
16402;DHT22;8310;44.626;11.176;2022-09-09T14:51:05;33.20;57.40
16402;DHT22;8310;44.626;11.176;2022-09-09T14:53:34;33.10;57.40
16402;DHT22;8310;44.626;11.176;2022-09-09T14:56:06;33.10;57.30
16402;DHT22;8310;44.626;11.176;2022-09-09T14:58:35;33.10;57.30
16402;DHT22;8310;44.626;11.176;2022-09-09T15:01:05;33.20;57.40
16402;DHT22;8310;44.626;11.176;2022-09-09T15:03:33;33.20;57.50
16402;DHT22;8310;44.626;11.176;2022-09-09T15:06:06;33.30;57.50
16402;DHT22;8310;44.626;11.176;2022-09-09T15:08:34;33.30;57.40
16402;DHT22;8310;44.626;11.176;2022-09-09T15:11:03;33.30;57.30
16402;DHT22;8310;44.626;11.176;2022-09-09T15:13:31;33.30;57.10
16402;DHT22;8310;44.626;11.176;2022-09-09T15:16:05;33.30;57.10
16402;DHT22;8310;44.626;11.176;2022-09-09T15:18:33;33.30;56.90
16402;DHT22;8310;44.626;11.176;2022-09-09T15:21:02;33.20;56.80
16402;DHT22;8310;44.626;11.176;2022-09-09T15:23:31;33.20;56.80
16402;DHT22;8310;44.626;11.176;2022-09-09T15:25:59;33.10;56.70
16402;DHT22;8310;44.626;11.176;2022-09-09T15:28:27;33.00;56.50
16402;DHT22;8310;44.626;11.176;2022-09-09T15:30:55;32.90;56.40
16402;DHT22;8310;44.626;11.176;2022-09-09T15:33:25;32.90;57.00
16402;DHT22;8310;44.626;11.176;2022-09-09T15:35:53;32.80;56.30
16402;DHT22;8310;44.626;11.176;2022-09-09T15:38:21;32.70;56.30
16402;DHT22;8310;44.626;11.176;2022-09-09T15:40:53;32.60;56.30
16402;DHT22;8310;44.626;11.176;2022-09-09T15:43:21;32.50;56.10
16402;DHT22;8310;44.626;11.176;2022-09-09T15:45:53;32.50;56.20
16402;DHT22;8310;44.626;11.176;2022-09-09T15:48:30;32.40;56.20
16402;DHT22;8310;44.626;11.176;2022-09-09T15:51:01;32.40;56.20
16402;DHT22;8310;44.626;11.176;2022-09-09T15:53:30;32.30;56.00
16402;DHT22;8310;44.626;11.176;2022-09-09T15:55:58;32.30;56.10
16402;DHT22;8310;44.626;11.176;2022-09-09T15:58:26;32.30;56.00
16402;DHT22;8310;44.626;11.176;2022-09-09T16:01:01;32.20;55.90
16402;DHT22;8310;44.626;11.176;2022-09-09T16:03:33;32.10;55.90